Time,TemperatureF,DewpointF,PressureIn,WindDirection,WindDirectionDegrees,WindSpeedMPH,WindSpeedGustMPH,Humidity,HourlyPrecipIn,Conditions,Clouds,dailyrainin,SoftwareType,DateUTC
2013-04-22 00:01:00,37.7,29.2,30.22,SSW,205,3.0,6.0,71,0.00,,---,0.00,VWS V14.01,2013-04-22 04:01:00,
2013-04-22 00:06:00,37.8,29.3,30.22,SE,136,2.0,12.0,71,0.00,,---,0.00,VWS V14.01,2013-04-22 04:06:00,
2013-04-22 00:11:00,37.9,29.0,30.22,South,180,1.0,12.0,70,0.00,,---,0.00,VWS V14.01,2013-04-22 04:11:00,
2013-04-22 00:16:00,38.0,29.1,30.22,SSW,209,4.0,12.0,70,0.00,,---,0.00,VWS V14.01,2013-04-22 04:16:00,
2013-04-22 00:21:00,38.1,29.2,30.21,SSW,209,3.0,12.0,70,0.00,,---,0.00,VWS V14.01,2013-04-22 04:21:00,
2013-04-22 00:26:00,38.1,29.2,30.21,SSW,207,7.0,12.0,70,0.00,,---,0.00,VWS V14.01,2013-04-22 04:26:00,
2013-04-22 00:31:00,38.2,28.9,30.21,SSW,213,2.0,12.0,69,0.00,,---,0.00,VWS V14.01,2013-04-22 04:31:00,
2013-04-22 00:36:00,38.3,29.0,30.21,SSE,167,10.0,12.0,69,0.00,,---,0.00,VWS V14.01,2013-04-22 04:36:00,
2013-04-22 00:41:00,38.4,29.1,30.20,SSW,213,3.0,12.0,69,0.00,,---,0.00,VWS V14.01,2013-04-22 04:41:00,
2013-04-22 00:46:00,38.5,28.9,30.20,SW,221,6.0,12.0,68,0.00,,---,0.00,VWS V14.01,2013-04-22 04:46:00,
2013-04-22 00:51:00,38.6,29.0,30.20,SSW,199,5.0,12.0,68,0.00,,---,0.00,VWS V14.01,2013-04-22 04:51:00,
2013-04-22 00:56:00,38.6,29.0,30.20,SW,215,10.0,12.0,68,0.00,,---,0.00,VWS V14.01,2013-04-22 04:56:00,
2013-04-22 01:01:00,38.5,28.9,30.20,SW,226,4.0,12.0,68,0.00,,---,0.00,VWS V14.01,2013-04-22 05:01:00,
2013-04-22 01:06:00,38.6,28.6,30.20,SW,214,1.0,12.0,67,0.00,,---,0.00,VWS V14.01,2013-04-22 05:06:00,
2013-04-22 01:11:00,38.6,28.6,30.20,SW,215,5.0,12.0,67,0.00,,---,0.00,VWS V14.01,2013-04-22 05:11:00,
2013-04-22 01:16:00,38.5,28.5,30.20,SW,221,3.0,12.0,67,0.00,,---,0.00,VWS V14.01,2013-04-22 05:16:00,
2013-04-22 01:21:00,38.5,28.1,30.20,SSW,210,2.0,13.0,66,0.00,,---,0.00,VWS V14.01,2013-04-22 05:21:00,
2013-04-22 01:26:00,38.6,28.6,30.20,SW,220,2.0,14.0,67,0.00,,---,0.00,VWS V14.01,2013-04-22 05:26:00,
2013-04-22 01:31:00,38.6,28.6,30.21,SW,224,0.0,14.0,67,0.00,,---,0.00,VWS V14.01,2013-04-22 05:31:00,
2013-04-22 01:36:00,38.6,28.6,30.20,SW,232,6.0,14.0,67,0.00,,---,0.00,VWS V14.01,2013-04-22 05:36:00,
2013-04-22 01:41:00,38.6,28.6,30.20,SW,228,2.0,14.0,67,0.00,,---,0.00,VWS V14.01,2013-04-22 05:41:00,
2013-04-22 01:46:00,38.5,28.9,30.19,SW,217,4.0,14.0,68,0.00,,---,0.00,VWS V14.01,2013-04-22 05:46:00,
2013-04-22 01:51:00,38.5,28.9,30.20,SW,218,3.0,14.0,68,0.00,,---,0.00,VWS V14.01,2013-04-22 05:51:00,
2013-04-22 01:56:00,38.4,28.8,30.21,SW,217,5.0,14.0,68,0.00,,---,0.00,VWS V14.01,2013-04-22 05:56:00,
2013-04-22 02:01:00,38.4,28.8,30.21,SW,215,5.0,8.0,68,0.00,,---,0.00,VWS V14.01,2013-04-22 06:01:00,
2013-04-22 02:06:00,38.4,28.8,30.21,SW,227,3.0,8.0,68,0.00,,---,0.00,VWS V14.01,2013-04-22 06:06:00,
2013-04-22 02:11:00,38.4,28.8,30.21,SSW,205,4.0,8.0,68,0.00,,---,0.00,VWS V14.01,2013-04-22 06:11:00,
2013-04-22 02:16:00,38.5,28.9,30.21,SW,235,4.0,13.0,68,0.00,,---,0.00,VWS V14.01,2013-04-22 06:16:00,
2013-04-22 02:21:00,38.4,28.8,30.21,SW,223,2.0,13.0,68,0.00,,---,0.00,VWS V14.01,2013-04-22 06:21:00,
2013-04-22 02:26:00,38.4,29.1,30.21,SW,217,3.0,13.0,69,0.00,,---,0.00,VWS V14.01,2013-04-22 06:26:00,
2013-04-22 02:31:00,38.4,29.1,30.20,SSW,201,3.0,13.0,69,0.00,,---,0.00,VWS V14.01,2013-04-22 06:31:00,
2013-04-22 02:36:00,38.4,29.1,30.21,SSW,201,5.0,13.0,69,0.00,,---,0.00,VWS V14.01,2013-04-22 06:36:00,
2013-04-22 02:41:00,38.4,29.5,30.21,SSW,202,3.0,13.0,70,0.00,,---,0.00,VWS V14.01,2013-04-22 06:41:00,
2013-04-22 02:46:00,38.3,29.7,30.21,SSW,202,3.0,13.0,71,0.00,,---,0.00,VWS V14.01,2013-04-22 06:46:00,
2013-04-22 02:51:00,38.0,29.8,30.21,SSW,205,2.0,13.0,72,0.00,,---,0.00,VWS V14.01,2013-04-22 06:51:00,
2013-04-22 02:56:00,37.9,29.7,30.20,SSW,205,2.0,13.0,72,0.00,,---,0.00,VWS V14.01,2013-04-22 06:56:00,
2013-04-22 03:01:00,37.8,29.6,30.20,SSW,213,3.0,13.0,72,0.00,,---,0.00,VWS V14.01,2013-04-22 07:01:00,
2013-04-22 03:06:00,37.8,29.9,30.21,SSW,213,4.0,13.0,73,0.00,,---,0.00,VWS V14.01,2013-04-22 07:06:00,
2013-04-22 03:11:00,37.6,30.1,30.21,SSW,213,1.0,13.0,74,0.00,,---,0.00,VWS V14.01,2013-04-22 07:11:00,
2013-04-22 03:16:00,37.2,30.7,30.20,SSW,213,2.0,13.0,77,0.00,,---,0.00,VWS V14.01,2013-04-22 07:16:00,
2013-04-22 03:21:00,36.8,30.9,30.20,SSW,213,0.0,13.0,79,0.01,,---,0.01,VWS V14.01,2013-04-22 07:21:00,
2013-04-22 03:26:00,36.4,31.1,30.20,SSW,213,5.0,13.0,81,0.03,,---,0.03,VWS V14.01,2013-04-22 07:26:00,
2013-04-22 03:31:00,36.2,31.5,30.18,SSW,209,4.0,13.0,83,0.06,,---,0.06,VWS V14.01,2013-04-22 07:31:00,
2013-04-22 03:36:00,36.1,31.7,30.18,SSW,210,5.0,13.0,84,0.09,,---,0.09,VWS V14.01,2013-04-22 07:36:00,
2013-04-22 03:41:00,36.1,32.0,30.17,SSW,209,6.0,13.0,85,0.12,,---,0.12,VWS V14.01,2013-04-22 07:41:00,
2013-04-22 03:46:00,36.1,32.3,30.16,SSW,207,4.0,13.0,86,0.13,,---,0.13,VWS V14.01,2013-04-22 07:46:00,
2013-04-22 03:51:00,36.2,32.4,30.16,SW,221,9.0,13.0,86,0.14,,---,0.14,VWS V14.01,2013-04-22 07:51:00,
2013-04-22 03:56:00,36.4,32.6,30.16,SSW,208,3.0,13.0,86,0.14,,---,0.14,VWS V14.01,2013-04-22 07:56:00,
2013-04-22 04:01:00,36.5,33.0,30.17,SSW,211,2.0,7.0,87,0.00,,---,0.14,VWS V14.01,2013-04-22 08:01:00,
2013-04-22 04:06:00,36.7,32.9,30.16,SW,221,3.0,9.0,86,0.01,,---,0.15,VWS V14.01,2013-04-22 08:06:00,
2013-04-22 04:11:00,36.8,33.0,30.16,SW,215,6.0,9.0,86,0.01,,---,0.16,VWS V14.01,2013-04-22 08:11:00,
2013-04-22 04:16:00,36.8,33.3,30.16,SW,221,3.0,9.0,87,0.02,,---,0.16,VWS V14.01,2013-04-22 08:16:00,
2013-04-22 04:21:00,36.8,33.3,30.15,SSW,208,4.0,10.0,87,0.02,,---,0.16,VWS V14.01,2013-04-22 08:21:00,
2013-04-22 04:26:00,36.7,33.2,30.15,SSW,204,5.0,10.0,87,0.03,,---,0.17,VWS V14.01,2013-04-22 08:26:00,
2013-04-22 04:31:00,36.9,33.4,30.15,SSW,207,6.0,11.0,87,0.03,,---,0.17,VWS V14.01,2013-04-22 08:31:00,
2013-04-22 04:36:00,36.9,33.4,30.14,SW,223,4.0,14.0,87,0.03,,---,0.17,VWS V14.01,2013-04-22 08:36:00,
2013-04-22 04:41:00,37.0,33.5,30.15,SW,215,3.0,14.0,87,0.04,,---,0.18,VWS V14.01,2013-04-22 08:41:00,
2013-04-22 04:46:00,37.1,33.6,30.15,SW,221,11.0,14.0,87,0.04,,---,0.18,VWS V14.01,2013-04-22 08:46:00,
2013-04-22 04:51:00,37.2,33.7,30.15,SW,216,5.0,14.0,87,0.04,,---,0.18,VWS V14.01,2013-04-22 08:51:00,
2013-04-22 04:56:00,37.2,33.7,30.15,SW,227,3.0,14.0,87,0.04,,---,0.18,VWS V14.01,2013-04-22 08:56:00,
2013-04-22 05:01:00,37.3,33.8,30.14,WSW,244,4.0,14.0,87,0.04,,---,0.18,VWS V14.01,2013-04-22 09:01:00,
2013-04-22 05:06:00,37.3,34.1,30.14,SW,227,4.0,14.0,88,0.04,,---,0.18,VWS V14.01,2013-04-22 09:06:00,
2013-04-22 05:11:00,37.4,33.9,30.14,SW,223,4.0,14.0,87,0.04,,---,0.18,VWS V14.01,2013-04-22 09:11:00,
2013-04-22 05:16:00,37.5,34.0,30.14,SSW,205,5.0,14.0,87,0.04,,---,0.18,VWS V14.01,2013-04-22 09:16:00,
2013-04-22 05:21:00,37.6,34.1,30.14,SW,223,5.0,14.0,87,0.04,,---,0.18,VWS V14.01,2013-04-22 09:21:00,
2013-04-22 05:26:00,37.7,33.9,30.14,SSW,210,6.0,14.0,86,0.04,,---,0.18,VWS V14.01,2013-04-22 09:26:00,
2013-04-22 05:31:00,37.8,34.0,30.15,SW,221,5.0,14.0,86,0.04,,---,0.18,VWS V14.01,2013-04-22 09:31:00,
2013-04-22 05:36:00,37.8,34.0,30.15,SW,221,6.0,14.0,86,0.04,,---,0.18,VWS V14.01,2013-04-22 09:36:00,
2013-04-22 05:41:00,37.8,34.0,30.15,SSW,212,6.0,14.0,86,0.04,,---,0.18,VWS V14.01,2013-04-22 09:41:00,
2013-04-22 05:46:00,38.0,33.9,30.14,SW,226,5.0,14.0,85,0.04,,---,0.18,VWS V14.01,2013-04-22 09:46:00,
2013-04-22 05:51:00,38.3,34.2,30.15,SSW,200,6.0,14.0,85,0.04,,---,0.18,VWS V14.01,2013-04-22 09:51:00,
2013-04-22 05:56:00,38.4,34.0,30.15,SW,225,9.0,14.0,84,0.04,,---,0.18,VWS V14.01,2013-04-22 09:56:00,
2013-04-22 06:01:00,38.7,34.3,30.15,SSW,204,3.0,9.0,84,0.00,,---,0.18,VWS V14.01,2013-04-22 10:01:00,
2013-04-22 06:06:00,38.6,34.2,30.15,SSW,208,4.0,10.0,84,0.00,,---,0.18,VWS V14.01,2013-04-22 10:06:00,
2013-04-22 06:11:00,38.5,34.1,30.15,SW,222,3.0,10.0,84,0.00,,---,0.18,VWS V14.01,2013-04-22 10:11:00,
2013-04-22 06:16:00,38.5,34.1,30.15,SW,217,4.0,10.0,84,0.00,,---,0.18,VWS V14.01,2013-04-22 10:16:00,
2013-04-22 06:21:00,38.4,34.0,30.15,SSW,211,7.0,10.0,84,0.00,,---,0.18,VWS V14.01,2013-04-22 10:21:00,
2013-04-22 06:26:00,38.5,34.1,30.15,SW,217,5.0,12.0,84,0.00,,---,0.18,VWS V14.01,2013-04-22 10:26:00,
2013-04-22 06:31:00,38.5,34.4,30.15,SSW,209,3.0,12.0,85,0.00,,---,0.18,VWS V14.01,2013-04-22 10:31:00,
2013-04-22 06:36:00,38.7,34.3,30.15,SSW,208,3.0,12.0,84,0.00,,---,0.18,VWS V14.01,2013-04-22 10:36:00,
2013-04-22 06:41:00,38.8,34.4,30.15,SW,214,6.0,12.0,84,0.00,,---,0.18,VWS V14.01,2013-04-22 10:41:00,
2013-04-22 06:46:00,38.8,34.4,30.15,SSW,213,3.0,12.0,84,0.00,,---,0.18,VWS V14.01,2013-04-22 10:46:00,
2013-04-22 06:51:00,38.7,34.3,30.16,SSW,195,7.0,12.0,84,0.00,,---,0.18,VWS V14.01,2013-04-22 10:51:00,
2013-04-22 06:56:00,39.1,34.7,30.15,South,191,6.0,14.0,84,0.00,,---,0.18,VWS V14.01,2013-04-22 10:56:00,
2013-04-22 07:01:00,39.1,34.4,30.15,South,184,8.0,14.0,83,0.00,,---,0.18,VWS V14.01,2013-04-22 11:01:00,
2013-04-22 07:06:00,39.0,34.3,30.16,SSW,198,7.0,14.0,83,0.00,,---,0.18,VWS V14.01,2013-04-22 11:06:00,
2013-04-22 07:11:00,38.9,34.5,30.16,SSW,200,3.0,14.0,84,0.00,,---,0.18,VWS V14.01,2013-04-22 11:11:00,
2013-04-22 07:16:00,39.0,34.6,30.16,SSW,202,3.0,14.0,84,0.00,,---,0.18,VWS V14.01,2013-04-22 11:16:00,
2013-04-22 07:21:00,39.0,34.6,30.16,SSW,211,6.0,14.0,84,0.00,,---,0.18,VWS V14.01,2013-04-22 11:21:00,
2013-04-22 07:26:00,39.1,34.7,30.17,SSW,208,4.0,14.0,84,0.00,,---,0.18,VWS V14.01,2013-04-22 11:26:00,
2013-04-22 07:31:00,39.0,34.9,30.17,SSW,207,3.0,14.0,85,0.00,,---,0.18,VWS V14.01,2013-04-22 11:31:00,
2013-04-22 07:36:00,38.9,34.8,30.18,SSW,211,4.0,14.0,85,0.00,,---,0.18,VWS V14.01,2013-04-22 11:36:00,
2013-04-22 07:41:00,38.8,34.7,30.18,SSW,212,2.0,14.0,85,0.00,,---,0.18,VWS V14.01,2013-04-22 11:41:00,
2013-04-22 07:46:00,38.8,34.7,30.17,SSW,209,5.0,14.0,85,0.00,,---,0.18,VWS V14.01,2013-04-22 11:46:00,
2013-04-22 07:51:00,38.8,34.7,30.18,SE,140,3.0,14.0,85,0.00,,---,0.18,VWS V14.01,2013-04-22 11:51:00,
2013-04-22 07:56:00,38.7,34.6,30.18,SSW,197,1.0,14.0,85,0.00,,---,0.18,VWS V14.01,2013-04-22 11:56:00,
2013-04-22 08:01:00,38.8,34.7,30.17,SSW,200,3.0,4.0,85,0.00,,---,0.18,VWS V14.01,2013-04-22 12:01:00,
2013-04-22 08:06:00,38.8,34.7,30.18,SSW,200,5.0,7.0,85,0.00,,---,0.18,VWS V14.01,2013-04-22 12:06:00,
2013-04-22 08:11:00,38.8,35.0,30.19,SW,218,2.0,8.0,86,0.00,,---,0.18,VWS V14.01,2013-04-22 12:11:00,
2013-04-22 08:16:00,38.8,35.0,30.19,SSW,201,4.0,9.0,86,0.00,,---,0.18,VWS V14.01,2013-04-22 12:16:00,
2013-04-22 08:21:00,38.9,34.8,30.19,SSW,202,3.0,9.0,85,0.00,,---,0.18,VWS V14.01,2013-04-22 12:21:00,
2013-04-22 08:26:00,39.0,34.9,30.19,SSW,201,2.0,9.0,85,0.00,,---,0.18,VWS V14.01,2013-04-22 12:26:00,
2013-04-22 08:31:00,39.2,35.1,30.19,SSW,202,2.0,9.0,85,0.00,,---,0.18,VWS V14.01,2013-04-22 12:31:00,
2013-04-22 08:36:00,39.3,35.2,30.19,SSW,211,3.0,10.0,85,0.00,,---,0.18,VWS V14.01,2013-04-22 12:36:00,
2013-04-22 08:41:00,39.4,35.3,30.19,SW,216,2.0,10.0,85,0.00,,---,0.18,VWS V14.01,2013-04-22 12:41:00,
2013-04-22 08:46:00,39.5,35.4,30.19,SW,216,1.0,10.0,85,0.00,,---,0.18,VWS V14.01,2013-04-22 12:46:00,
2013-04-22 08:51:00,39.7,35.3,30.19,SSW,213,1.0,10.0,84,0.00,,---,0.18,VWS V14.01,2013-04-22 12:51:00,
2013-04-22 08:56:00,40.0,35.6,30.20,SSW,213,0.0,10.0,84,0.00,,---,0.18,VWS V14.01,2013-04-22 12:56:00,
2013-04-22 09:01:00,40.1,35.7,30.20,SW,215,2.0,10.0,84,0.00,,---,0.18,VWS V14.01,2013-04-22 13:01:00,
2013-04-22 09:06:00,40.3,35.6,30.20,SW,215,3.0,10.0,83,0.00,,---,0.18,VWS V14.01,2013-04-22 13:06:00,
2013-04-22 09:11:00,40.4,35.7,30.20,SSW,212,0.0,10.0,83,0.00,,---,0.18,VWS V14.01,2013-04-22 13:11:00,
2013-04-22 09:15:00,40.5,35.8,30.20,SSW,211,2.0,10.0,83,0.00,,---,0.18,VWS V14.01,2013-04-22 13:15:00,
2013-04-22 09:21:00,40.6,35.8,30.20,SSW,211,2.0,10.0,83,0.00,,---,0.18,VWS V14.01,2013-04-22 13:21:00,
2013-04-22 09:26:00,40.6,35.8,30.20,SSW,211,2.0,10.0,83,0.00,,---,0.18,VWS V14.01,2013-04-22 13:26:00,
2013-04-22 09:31:00,40.7,36.0,30.20,SSW,209,2.0,10.0,83,0.00,,---,0.18,VWS V14.01,2013-04-22 13:31:00,
2013-04-22 09:35:00,40.6,35.8,30.20,SSW,209,2.0,10.0,83,0.00,,---,0.18,VWS V14.01,2013-04-22 13:35:00,
2013-04-22 09:40:00,40.7,36.0,30.20,SSW,208,3.0,10.0,83,0.00,,---,0.18,VWS V14.01,2013-04-22 13:40:00,
2013-04-22 09:45:00,40.8,36.0,30.20,SSW,209,3.0,10.0,83,0.00,,---,0.18,VWS V14.01,2013-04-22 13:45:00,
2013-04-22 09:50:00,40.7,36.0,30.20,SSW,209,2.0,10.0,83,0.00,,---,0.18,VWS V14.01,2013-04-22 13:50:00,
2013-04-22 09:55:00,40.8,36.0,30.20,SSW,209,1.0,10.0,83,0.00,,---,0.18,VWS V14.01,2013-04-22 13:55:00,
2013-04-22 10:00:00,41.0,36.2,30.20,SSW,209,0.0,2.0,83,0.00,,---,0.18,VWS V14.01,2013-04-22 14:00:00,
2013-04-22 10:05:00,41.2,36.4,30.21,SSW,209,2.0,3.0,83,0.00,,---,0.18,VWS V14.01,2013-04-22 14:05:00,
2013-04-22 10:10:00,41.3,36.5,30.21,SSW,208,0.0,3.0,83,0.00,,---,0.18,VWS V14.01,2013-04-22 14:10:00,
2013-04-22 10:15:00,41.4,36.6,30.21,SSW,208,0.0,3.0,83,0.00,,---,0.18,VWS V14.01,2013-04-22 14:15:00,
2013-04-22 10:20:00,41.4,36.6,30.22,SSW,208,0.0,3.0,83,0.00,,---,0.18,VWS V14.01,2013-04-22 14:20:00,
2013-04-22 10:25:00,41.4,36.6,30.22,SSW,208,0.0,5.0,83,0.00,,---,0.18,VWS V14.01,2013-04-22 14:25:00,
2013-04-22 10:30:00,41.3,36.5,30.22,SSW,208,2.0,5.0,83,0.00,,---,0.18,VWS V14.01,2013-04-22 14:30:00,
2013-04-22 10:35:00,41.2,36.4,30.22,SSW,208,2.0,5.0,83,0.00,,---,0.18,VWS V14.01,2013-04-22 14:35:00,
2013-04-22 10:40:00,41.0,36.2,30.22,SSW,208,0.0,5.0,83,0.00,,---,0.18,VWS V14.01,2013-04-22 14:40:00,
2013-04-22 10:46:00,40.9,36.5,30.22,SSW,208,1.0,5.0,84,0.00,,---,0.18,VWS V14.01,2013-04-22 14:46:00,
2013-04-22 10:50:00,40.9,36.5,30.22,SSW,205,1.0,5.0,84,0.00,,---,0.18,VWS V14.01,2013-04-22 14:50:00,
2013-04-22 10:55:00,41.0,36.5,30.22,SSW,204,2.0,5.0,84,0.00,,---,0.18,VWS V14.01,2013-04-22 14:55:00,
2013-04-22 11:00:00,41.1,36.3,30.22,SSW,205,1.0,5.0,83,0.00,,---,0.18,VWS V14.01,2013-04-22 15:00:00,
2013-04-22 11:05:00,41.1,36.6,30.22,SSW,204,1.0,5.0,84,0.00,,---,0.18,VWS V14.01,2013-04-22 15:05:00,
2013-04-22 11:10:00,41.3,36.8,30.22,SSW,204,1.0,5.0,84,0.00,,---,0.18,VWS V14.01,2013-04-22 15:10:00,
2013-04-22 11:15:00,41.3,36.8,30.22,SSW,205,0.0,5.0,84,0.00,,---,0.18,VWS V14.01,2013-04-22 15:15:00,
2013-04-22 11:20:00,41.5,37.0,30.22,SSW,204,1.0,5.0,84,0.00,,---,0.18,VWS V14.01,2013-04-22 15:20:00,
2013-04-22 11:25:00,41.5,36.7,30.22,SSW,205,2.0,5.0,83,0.00,,---,0.18,VWS V14.01,2013-04-22 15:25:00,
2013-04-22 11:30:00,41.5,37.0,30.22,SSW,204,0.0,5.0,84,0.00,,---,0.18,VWS V14.01,2013-04-22 15:30:00,
2013-04-22 11:35:00,41.6,36.8,30.22,SSW,204,0.0,5.0,83,0.00,,---,0.18,VWS V14.01,2013-04-22 15:35:00,
2013-04-22 11:40:00,41.8,37.0,30.23,SSW,204,2.0,5.0,83,0.00,,---,0.18,VWS V14.01,2013-04-22 15:40:00,
2013-04-22 11:45:00,41.8,37.0,30.23,SSW,205,0.0,5.0,83,0.00,,---,0.18,VWS V14.01,2013-04-22 15:45:00,
2013-04-22 11:50:00,41.9,37.1,30.23,SSW,205,0.0,5.0,83,0.00,,---,0.18,VWS V14.01,2013-04-22 15:50:00,
2013-04-22 11:55:00,42.0,37.2,30.23,SSW,205,0.0,5.0,83,0.00,,---,0.18,VWS V14.01,2013-04-22 15:55:00,
2013-04-22 12:00:00,42.2,37.4,30.23,SSW,205,4.0,4.0,83,0.00,,---,0.18,VWS V14.01,2013-04-22 16:00:00,
2013-04-22 12:05:00,42.4,37.6,30.23,SSW,204,0.0,4.0,83,0.00,,---,0.18,VWS V14.01,2013-04-22 16:05:00,
2013-04-22 12:10:00,42.6,37.5,30.23,SSW,204,0.0,4.0,82,0.00,,---,0.18,VWS V14.01,2013-04-22 16:10:00,
2013-04-22 12:15:00,42.7,37.6,30.23,SSW,204,0.0,4.0,82,0.00,,---,0.18,VWS V14.01,2013-04-22 16:15:00,
2013-04-22 12:20:00,42.7,37.6,30.23,SSW,205,1.0,4.0,82,0.00,,---,0.18,VWS V14.01,2013-04-22 16:20:00,
2013-04-22 12:25:00,42.8,37.7,30.23,SSW,205,0.0,4.0,82,0.00,,---,0.18,VWS V14.01,2013-04-22 16:25:00,
2013-04-22 12:30:00,43.0,37.9,30.23,SSW,204,0.0,4.0,82,0.00,,---,0.18,VWS V14.01,2013-04-22 16:30:00,
2013-04-22 12:35:00,42.0,36.0,30.23,North,360,4.0,10.0,79,0.00,,---,0.18,VWS V14.01,2013-04-22 16:35:00,
2013-04-22 12:40:00,40.1,35.4,30.23,North,360,0.0,10.0,83,0.00,,---,0.18,VWS V14.01,2013-04-22 16:40:00,
2013-04-22 12:45:00,39.5,35.1,30.23,North,360,0.0,10.0,84,0.00,,---,0.18,VWS V14.01,2013-04-22 16:45:00,
2013-04-22 12:50:00,39.0,34.9,30.23,North,360,0.0,10.0,85,0.00,,---,0.18,VWS V14.01,2013-04-22 16:50:00,
2013-04-22 12:55:00,38.8,35.0,30.24,North,360,0.0,10.0,86,0.00,,---,0.18,VWS V14.01,2013-04-22 16:55:00,
2013-04-22 13:00:00,38.5,34.7,30.24,North,360,2.0,10.0,86,0.00,,---,0.18,VWS V14.01,2013-04-22 17:00:00,
2013-04-22 13:05:00,38.0,34.5,30.24,North,360,0.0,10.0,87,0.00,,---,0.18,VWS V14.01,2013-04-22 17:05:00,
2013-04-22 13:10:00,37.8,34.6,30.23,North,360,0.0,10.0,88,0.00,,---,0.18,VWS V14.01,2013-04-22 17:10:00,
2013-04-22 13:15:00,37.8,34.9,30.23,North,360,2.0,10.0,89,0.00,,---,0.18,VWS V14.01,2013-04-22 17:15:00,
2013-04-22 13:20:00,37.9,35.0,30.23,North,360,2.0,10.0,89,0.00,,---,0.18,VWS V14.01,2013-04-22 17:20:00,
2013-04-22 13:25:00,37.9,35.0,30.23,North,360,2.0,10.0,89,0.00,,---,0.18,VWS V14.01,2013-04-22 17:25:00,
2013-04-22 13:30:00,38.1,34.9,30.23,North,360,0.0,10.0,88,0.00,,---,0.18,VWS V14.01,2013-04-22 17:30:00,
2013-04-22 13:35:00,38.2,35.0,30.23,North,360,0.0,10.0,88,0.00,,---,0.18,VWS V14.01,2013-04-22 17:35:00,
2013-04-22 13:40:00,38.2,34.7,30.23,North,360,0.0,10.0,87,0.00,,---,0.18,VWS V14.01,2013-04-22 17:40:00,
2013-04-22 13:45:00,38.2,34.7,30.23,North,360,1.0,10.0,87,0.00,,---,0.18,VWS V14.01,2013-04-22 17:45:00,
2013-04-22 13:50:00,38.1,34.6,30.23,North,360,0.0,10.0,87,0.00,,---,0.18,VWS V14.01,2013-04-22 17:50:00,
2013-04-22 13:55:00,38.0,34.5,30.23,North,360,0.0,10.0,87,0.00,,---,0.18,VWS V14.01,2013-04-22 17:55:00,
2013-04-22 14:00:00,38.1,34.6,30.23,North,360,0.0,0.0,87,0.00,,---,0.18,VWS V14.01,2013-04-22 18:00:00,
2013-04-22 14:05:00,38.1,34.6,30.23,North,360,0.0,1.0,87,0.00,,---,0.18,VWS V14.01,2013-04-22 18:05:00,
2013-04-22 14:10:00,38.1,34.6,30.23,North,360,0.0,1.0,87,0.00,,---,0.18,VWS V14.01,2013-04-22 18:10:00,
2013-04-22 14:15:00,38.1,36.0,30.23,North,360,0.0,1.0,92,0.00,,---,0.18,VWS V14.01,2013-04-22 18:15:00,
2013-04-22 14:20:00,38.0,34.5,30.23,North,360,1.0,2.0,87,0.00,,---,0.18,VWS V14.01,2013-04-22 18:20:00,
2013-04-22 14:25:00,37.9,34.4,30.23,North,360,0.0,2.0,87,0.00,,---,0.18,VWS V14.01,2013-04-22 18:25:00,
2013-04-22 14:30:00,37.7,34.2,30.23,North,360,0.0,2.0,87,0.00,,---,0.18,VWS V14.01,2013-04-22 18:30:00,
2013-04-22 14:35:00,37.6,34.1,30.23,North,360,0.0,2.0,87,0.00,,---,0.18,VWS V14.01,2013-04-22 18:35:00,
2013-04-22 14:40:00,37.5,34.3,30.23,North,360,3.0,3.0,88,0.00,,---,0.18,VWS V14.01,2013-04-22 18:40:00,
2013-04-22 14:45:00,37.4,34.2,30.23,North,360,0.0,3.0,88,0.00,,---,0.18,VWS V14.01,2013-04-22 18:45:00,
2013-04-22 14:50:00,37.3,34.1,30.23,North,360,0.0,3.0,88,0.00,,---,0.18,VWS V14.01,2013-04-22 18:50:00,
2013-04-22 14:55:00,37.3,34.1,30.23,North,360,0.0,3.0,88,0.00,,---,0.18,VWS V14.01,2013-04-22 18:55:00,
2013-04-22 15:00:00,37.3,34.1,30.23,North,360,0.0,3.0,88,0.00,,---,0.18,VWS V14.01,2013-04-22 19:00:00,
2013-04-22 15:05:00,37.3,34.1,30.24,North,360,0.0,3.0,88,0.00,,---,0.18,VWS V14.01,2013-04-22 19:05:00,
2013-04-22 15:10:00,37.3,33.8,30.24,North,360,0.0,3.0,87,0.00,,---,0.18,VWS V14.01,2013-04-22 19:10:00,
2013-04-22 15:15:00,37.2,33.7,30.24,North,360,0.0,3.0,87,0.00,,---,0.18,VWS V14.01,2013-04-22 19:15:00,
2013-04-22 15:20:00,37.1,33.6,30.24,North,360,0.0,3.0,87,0.00,,---,0.18,VWS V14.01,2013-04-22 19:20:00,
2013-04-22 15:25:00,37.0,33.5,30.24,North,360,1.0,3.0,87,0.00,,---,0.18,VWS V14.01,2013-04-22 19:25:00,
2013-04-22 15:30:00,37.0,33.5,30.23,North,360,0.0,3.0,87,0.00,,---,0.18,VWS V14.01,2013-04-22 19:30:00,
2013-04-22 15:35:00,36.9,33.7,30.23,North,360,0.0,3.0,88,0.00,,---,0.18,VWS V14.01,2013-04-22 19:35:00,
2013-04-22 15:40:00,36.8,33.6,30.23,North,360,0.0,3.0,88,0.00,,---,0.18,VWS V14.01,2013-04-22 19:40:00,
2013-04-22 15:45:00,36.7,33.5,30.23,North,360,0.0,3.0,88,0.00,,---,0.18,VWS V14.01,2013-04-22 19:45:00,
2013-04-22 15:50:00,36.6,33.4,30.23,North,360,0.0,3.0,88,0.00,,---,0.18,VWS V14.01,2013-04-22 19:50:00,
2013-04-22 15:55:00,36.5,33.3,30.23,North,360,0.0,3.0,88,0.00,,---,0.18,VWS V14.01,2013-04-22 19:55:00,
2013-04-22 16:00:00,36.5,33.6,30.22,North,360,0.0,0.0,89,0.00,,---,0.19,VWS V14.01,2013-04-22 20:00:00,
2013-04-22 16:05:00,36.6,33.7,30.22,North,360,0.0,0.0,89,0.00,,---,0.19,VWS V14.01,2013-04-22 20:05:00,
2013-04-22 16:10:00,36.6,33.7,30.23,North,360,0.0,1.0,89,0.00,,---,0.19,VWS V14.01,2013-04-22 20:10:00,
2013-04-22 16:15:00,36.6,33.7,30.23,North,360,0.0,1.0,89,0.01,,---,0.20,VWS V14.01,2013-04-22 20:15:00,
2013-04-22 16:20:00,36.5,33.6,30.23,North,360,0.0,1.0,89,0.01,,---,0.20,VWS V14.01,2013-04-22 20:20:00,
2013-04-22 16:25:00,36.5,33.6,30.23,North,360,0.0,1.0,89,0.02,,---,0.21,VWS V14.01,2013-04-22 20:25:00,
2013-04-22 16:30:00,36.4,33.5,30.23,North,360,0.0,1.0,89,0.03,,---,0.22,VWS V14.01,2013-04-22 20:30:00,
2013-04-22 16:35:00,36.3,33.4,30.22,North,360,0.0,1.0,89,0.04,,---,0.23,VWS V14.01,2013-04-22 20:35:00,
2013-04-22 16:40:00,36.3,33.4,30.22,North,360,0.0,1.0,89,0.06,,---,0.25,VWS V14.01,2013-04-22 20:40:00,
2013-04-22 16:45:00,36.2,33.3,30.22,North,360,0.0,2.0,89,0.07,,---,0.26,VWS V14.01,2013-04-22 20:45:00,
2013-04-22 16:50:00,36.1,33.2,30.22,North,360,0.0,2.0,89,0.07,,---,0.26,VWS V14.01,2013-04-22 20:50:00,
2013-04-22 16:55:00,36.1,33.5,30.22,North,360,0.0,2.0,90,0.08,,---,0.27,VWS V14.01,2013-04-22 20:55:00,
2013-04-22 17:00:00,36.1,33.5,30.22,North,360,0.0,2.0,90,0.09,,---,0.28,VWS V14.01,2013-04-22 21:00:00,
2013-04-22 17:05:00,36.1,33.7,30.22,North,360,0.0,2.0,91,0.10,,---,0.29,VWS V14.01,2013-04-22 21:05:00,
2013-04-22 17:10:00,36.1,33.7,30.22,North,360,0.0,2.0,91,0.10,,---,0.29,VWS V14.01,2013-04-22 21:10:00,
2013-04-22 17:15:00,36.1,33.7,30.21,North,360,0.0,2.0,91,0.11,,---,0.30,VWS V14.01,2013-04-22 21:15:00,
2013-04-22 17:20:00,36.1,33.7,30.21,North,360,2.0,2.0,91,0.12,,---,0.31,VWS V14.01,2013-04-22 21:20:00,
2013-04-22 17:25:00,36.0,33.6,30.21,North,360,0.0,2.0,91,0.12,,---,0.31,VWS V14.01,2013-04-22 21:25:00,
2013-04-22 17:30:00,35.9,33.5,30.21,North,360,0.0,2.0,91,0.13,,---,0.32,VWS V14.01,2013-04-22 21:30:00,
2013-04-22 17:35:00,35.9,33.5,30.21,North,360,0.0,2.0,91,0.13,,---,0.32,VWS V14.01,2013-04-22 21:35:00,
2013-04-22 17:40:00,35.8,33.4,30.21,North,360,0.0,2.0,91,0.13,,---,0.32,VWS V14.01,2013-04-22 21:40:00,
2013-04-22 17:45:00,35.8,33.4,30.21,North,360,0.0,2.0,91,0.13,,---,0.32,VWS V14.01,2013-04-22 21:45:00,
2013-04-22 17:50:00,35.7,33.3,30.21,North,360,0.0,2.0,91,0.13,,---,0.32,VWS V14.01,2013-04-22 21:50:00,
2013-04-22 17:55:00,35.7,33.6,30.21,North,360,0.0,2.0,92,0.13,,---,0.32,VWS V14.01,2013-04-22 21:55:00,
2013-04-22 18:00:00,35.7,33.6,30.21,North,360,0.0,0.0,92,0.00,,---,0.33,VWS V14.01,2013-04-22 22:00:00,
2013-04-22 18:05:00,35.7,33.6,30.22,North,360,0.0,0.0,92,0.01,,---,0.34,VWS V14.01,2013-04-22 22:05:00,
2013-04-22 18:10:00,35.7,33.6,30.22,North,360,0.0,0.0,92,0.01,,---,0.34,VWS V14.01,2013-04-22 22:10:00,
2013-04-22 18:15:00,35.6,33.5,30.22,North,360,0.0,0.0,92,0.02,,---,0.35,VWS V14.01,2013-04-22 22:15:00,
2013-04-22 18:20:00,35.6,33.5,30.21,North,360,0.0,0.0,92,0.03,,---,0.36,VWS V14.01,2013-04-22 22:20:00,
2013-04-22 18:25:00,35.6,33.5,30.21,North,360,0.0,0.0,92,0.04,,---,0.37,VWS V14.01,2013-04-22 22:25:00,
2013-04-22 18:30:00,35.6,33.5,30.21,North,360,0.0,0.0,92,0.04,,---,0.37,VWS V14.01,2013-04-22 22:30:00,
2013-04-22 18:35:00,35.6,33.5,30.21,North,360,0.0,0.0,92,0.05,,---,0.38,VWS V14.01,2013-04-22 22:35:00,
2013-04-22 18:40:00,35.5,33.4,30.21,North,360,0.0,0.0,92,0.06,,---,0.39,VWS V14.01,2013-04-22 22:40:00,
2013-04-22 18:45:00,35.4,33.3,30.21,North,360,0.0,0.0,92,0.06,,---,0.39,VWS V14.01,2013-04-22 22:45:00,
2013-04-22 18:50:00,35.4,33.3,30.21,North,360,0.0,1.0,92,0.06,,---,0.39,VWS V14.01,2013-04-22 22:50:00,
2013-04-22 18:55:00,35.3,33.2,30.21,North,360,0.0,1.0,92,0.07,,---,0.40,VWS V14.01,2013-04-22 22:55:00,
2013-04-22 19:00:00,35.2,33.1,30.20,North,360,0.0,1.0,92,0.07,,---,0.40,VWS V14.01,2013-04-22 23:00:00,
2013-04-22 19:05:00,35.2,33.1,30.20,North,360,0.0,1.0,92,0.07,,---,0.40,VWS V14.01,2013-04-22 23:05:00,
2013-04-22 19:10:00,35.1,33.0,30.20,North,360,0.0,1.0,92,0.07,,---,0.40,VWS V14.01,2013-04-22 23:10:00,
2013-04-22 19:15:00,35.1,33.0,30.20,North,360,0.0,1.0,92,0.08,,---,0.41,VWS V14.01,2013-04-22 23:15:00,
2013-04-22 19:20:00,35.0,33.2,30.20,North,360,1.0,1.0,93,0.08,,---,0.41,VWS V14.01,2013-04-22 23:20:00,
2013-04-22 19:25:00,35.0,33.2,30.20,North,360,0.0,1.0,93,0.08,,---,0.41,VWS V14.01,2013-04-22 23:25:00,
2013-04-22 19:30:00,34.8,33.0,30.20,North,360,0.0,1.0,93,0.08,,---,0.41,VWS V14.01,2013-04-22 23:30:00,
2013-04-22 19:35:00,34.8,33.0,30.20,North,360,0.0,1.0,93,0.09,,---,0.42,VWS V14.01,2013-04-22 23:35:00,
2013-04-22 19:40:00,34.6,32.8,30.19,North,360,0.0,1.0,93,0.09,,---,0.42,VWS V14.01,2013-04-22 23:40:00,
2013-04-22 19:45:00,34.6,32.8,30.19,North,360,2.0,2.0,93,0.09,,---,0.42,VWS V14.01,2013-04-22 23:45:00,
2013-04-22 19:50:00,34.4,32.6,30.18,North,360,1.0,3.0,93,0.10,,---,0.43,VWS V14.01,2013-04-22 23:50:00,
2013-04-22 19:55:00,34.4,32.6,30.19,North,360,2.0,4.0,93,0.10,,---,0.43,VWS V14.01,2013-04-22 23:55:00,
2013-04-22 20:00:00,34.4,32.6,30.19,North,360,2.0,2.0,93,0.00,,---,0.43,VWS V14.01,2013-04-23 00:00:00,
2013-04-22 20:05:00,34.4,32.6,30.19,North,360,3.0,3.0,93,0.00,,---,0.43,VWS V14.01,2013-04-23 00:05:00,
2013-04-22 20:10:00,34.4,32.6,30.18,North,360,2.0,4.0,93,0.01,,---,0.44,VWS V14.01,2013-04-23 00:10:00,
2013-04-22 20:15:00,34.4,32.6,30.18,North,360,2.0,4.0,93,0.01,,---,0.44,VWS V14.01,2013-04-23 00:15:00,
2013-04-22 20:20:00,34.4,32.6,30.18,North,360,2.0,4.0,93,0.01,,---,0.44,VWS V14.01,2013-04-23 00:20:00,
2013-04-22 20:25:00,34.4,32.9,30.18,North,360,2.0,4.0,94,0.01,,---,0.44,VWS V14.01,2013-04-23 00:25:00,
2013-04-22 20:30:00,34.4,32.9,30.18,North,360,2.0,4.0,94,0.01,,---,0.44,VWS V14.01,2013-04-23 00:30:00,
2013-04-22 20:35:00,34.4,32.9,30.18,North,360,3.0,4.0,94,0.01,,---,0.44,VWS V14.01,2013-04-23 00:35:00,
2013-04-22 20:40:00,34.4,32.9,30.18,North,360,4.0,5.0,94,0.01,,---,0.44,VWS V14.01,2013-04-23 00:40:00,
2013-04-22 20:45:00,34.4,32.9,30.18,North,360,7.0,7.0,94,0.01,,---,0.44,VWS V14.01,2013-04-23 00:45:00,
2013-04-22 20:50:00,34.4,32.9,30.18,North,360,6.0,7.0,94,0.01,,---,0.44,VWS V14.01,2013-04-23 00:50:00,
2013-04-22 20:55:00,34.4,32.9,30.18,North,360,6.0,9.0,94,0.01,,---,0.44,VWS V14.01,2013-04-23 00:55:00,
2013-04-22 21:00:00,34.4,32.9,30.18,North,360,5.0,9.0,94,0.01,,---,0.44,VWS V14.01,2013-04-23 01:00:00,
2013-04-22 21:05:00,34.4,32.9,30.18,North,360,5.0,9.0,94,0.01,,---,0.44,VWS V14.01,2013-04-23 01:05:00,
2013-04-22 21:10:00,34.4,32.9,30.18,North,360,7.0,9.0,94,0.01,,---,0.44,VWS V14.01,2013-04-23 01:10:00,
2013-04-22 21:15:00,34.3,32.8,30.18,North,360,5.0,9.0,94,0.01,,---,0.44,VWS V14.01,2013-04-23 01:15:00,
2013-04-22 21:20:00,34.2,32.4,30.18,North,360,3.0,10.0,93,0.01,,---,0.44,VWS V14.01,2013-04-23 01:20:00,
2013-04-22 21:25:00,34.2,32.4,30.18,North,360,6.0,10.0,93,0.01,,---,0.44,VWS V14.01,2013-04-23 01:25:00,
2013-04-22 21:30:00,34.1,32.3,30.18,North,360,3.0,10.0,93,0.02,,---,0.45,VWS V14.01,2013-04-23 01:30:00,
2013-04-22 21:35:00,34.1,32.3,30.19,North,360,4.0,10.0,93,0.02,,---,0.45,VWS V14.01,2013-04-23 01:35:00,
2013-04-22 21:40:00,34.1,32.3,30.19,North,360,6.0,10.0,93,0.02,,---,0.45,VWS V14.01,2013-04-23 01:40:00,
2013-04-22 21:45:00,34.1,32.3,30.18,North,360,6.0,10.0,93,0.02,,---,0.45,VWS V14.01,2013-04-23 01:45:00,
2013-04-22 21:50:00,34.1,32.3,30.18,North,360,4.0,10.0,93,0.02,,---,0.45,VWS V14.01,2013-04-23 01:50:00,
2013-04-22 21:55:00,34.1,32.3,30.18,North,360,6.0,10.0,93,0.02,,---,0.45,VWS V14.01,2013-04-23 01:55:00,
2013-04-22 22:00:00,34.1,32.3,30.18,North,360,7.0,10.0,93,0.03,,---,0.46,VWS V14.01,2013-04-23 02:00:00,
2013-04-22 22:05:00,34.1,32.3,30.18,North,360,6.0,10.0,93,0.00,,---,0.46,VWS V14.01,2013-04-23 02:05:00,
2013-04-22 22:10:00,34.1,32.3,30.17,North,360,6.0,10.0,93,0.00,,---,0.46,VWS V14.01,2013-04-23 02:10:00,
2013-04-22 22:15:00,34.0,32.2,30.17,North,360,6.0,10.0,93,0.00,,---,0.46,VWS V14.01,2013-04-23 02:15:00,
2013-04-22 22:20:00,34.0,32.2,30.17,North,360,7.0,10.0,93,0.00,,---,0.46,VWS V14.01,2013-04-23 02:20:00,
2013-04-22 22:25:00,34.0,32.2,30.17,North,360,4.0,10.0,93,0.00,,---,0.46,VWS V14.01,2013-04-23 02:25:00,
2013-04-22 22:30:00,34.0,32.2,30.17,North,360,5.0,10.0,93,0.00,,---,0.46,VWS V14.01,2013-04-23 02:30:00,
2013-04-22 22:35:00,34.1,32.3,30.17,North,360,10.0,11.0,93,0.00,,---,0.46,VWS V14.01,2013-04-23 02:35:00,
2013-04-22 22:40:00,34.0,32.2,30.17,North,360,6.0,11.0,93,0.00,,---,0.46,VWS V14.01,2013-04-23 02:40:00,
2013-04-22 22:45:00,34.1,32.3,30.16,North,360,5.0,12.0,93,0.00,,---,0.46,VWS V14.01,2013-04-23 02:45:00,
2013-04-22 22:50:00,34.1,32.3,30.16,North,360,7.0,12.0,93,0.00,,---,0.46,VWS V14.01,2013-04-23 02:50:00,
2013-04-22 22:55:00,34.0,32.2,30.16,North,360,10.0,12.0,93,0.00,,---,0.46,VWS V14.01,2013-04-23 02:55:00,
2013-04-22 23:00:00,34.0,32.2,30.16,North,360,6.0,12.0,93,0.00,,---,0.46,VWS V14.01,2013-04-23 03:00:00,
2013-04-22 23:05:00,34.0,32.2,30.16,North,360,5.0,12.0,93,0.00,,---,0.46,VWS V14.01,2013-04-23 03:05:00,
2013-04-22 23:10:00,34.0,32.2,30.17,North,360,3.0,12.0,93,0.00,,---,0.46,VWS V14.01,2013-04-23 03:10:00,
2013-04-22 23:15:00,34.0,32.2,30.17,North,360,2.0,12.0,93,0.00,,---,0.46,VWS V14.01,2013-04-23 03:15:00,
2013-04-22 23:20:00,34.0,32.2,30.17,North,360,1.0,12.0,93,0.00,,---,0.46,VWS V14.01,2013-04-23 03:20:00,
2013-04-22 23:25:00,34.0,32.2,30.16,North,360,3.0,12.0,93,0.00,,---,0.46,VWS V14.01,2013-04-23 03:25:00,
2013-04-22 23:30:00,34.0,32.2,30.16,North,360,4.0,12.0,93,0.00,,---,0.46,VWS V14.01,2013-04-23 03:30:00,
2013-04-22 23:35:00,34.0,32.2,30.16,North,360,7.0,12.0,93,0.00,,---,0.46,VWS V14.01,2013-04-23 03:35:00,
2013-04-22 23:40:00,34.0,32.5,30.17,North,360,4.0,12.0,94,0.00,,---,0.46,VWS V14.01,2013-04-23 03:40:00,
2013-04-22 23:45:00,34.0,32.2,30.17,North,360,5.0,12.0,93,0.00,,---,0.46,VWS V14.01,2013-04-23 03:45:00,
2013-04-22 23:50:00,34.1,32.6,30.17,North,360,4.0,12.0,94,0.00,,---,0.46,VWS V14.01,2013-04-23 03:50:00,
2013-04-22 23:55:00,34.1,32.6,30.17,North,360,5.0,12.0,94,0.00,,---,0.46,VWS V14.01,2013-04-23 03:55:00,